sensor_id;sensor_type;location;lat;lon;timestamp;P1;durP1;ratioP1;P2;durP2;ratioP2
19161;SDS011;9713;48.140;11.530;2022-11-20T00:03:24;3.90;;;2.57;;
19161;SDS011;9713;48.140;11.530;2022-11-20T00:07:06;2.97;;;2.10;;
19161;SDS011;9713;48.140;11.530;2022-11-20T00:10:50;6.13;;;2.70;;
19161;SDS011;9713;48.140;11.530;2022-11-20T00:14:33;5.27;;;2.60;;
19161;SDS011;9713;48.140;11.530;2022-11-20T00:18:16;4.17;;;2.57;;
19161;SDS011;9713;48.140;11.530;2022-11-20T00:21:58;6.40;;;2.80;;
19161;SDS011;9713;48.140;11.530;2022-11-20T00:25:41;4.33;;;2.20;;
19161;SDS011;9713;48.140;11.530;2022-11-20T00:29:25;3.27;;;2.53;;
19161;SDS011;9713;48.140;11.530;2022-11-20T00:33:08;4.17;;;3.00;;
19161;SDS011;9713;48.140;11.530;2022-11-20T00:36:52;3.37;;;2.37;;
19161;SDS011;9713;48.140;11.530;2022-11-20T00:40:34;4.87;;;2.93;;
19161;SDS011;9713;48.140;11.530;2022-11-20T00:44:17;3.47;;;2.77;;
19161;SDS011;9713;48.140;11.530;2022-11-20T00:48:01;5.60;;;2.40;;
19161;SDS011;9713;48.140;11.530;2022-11-20T00:51:46;5.67;;;2.57;;
19161;SDS011;9713;48.140;11.530;2022-11-20T00:55:29;4.13;;;2.50;;
19161;SDS011;9713;48.140;11.530;2022-11-20T00:59:15;3.67;;;2.40;;
19161;SDS011;9713;48.140;11.530;2022-11-20T01:02:57;3.90;;;2.77;;
19161;SDS011;9713;48.140;11.530;2022-11-20T01:06:42;3.20;;;2.33;;
19161;SDS011;9713;48.140;11.530;2022-11-20T01:10:24;6.30;;;2.70;;
19161;SDS011;9713;48.140;11.530;2022-11-20T01:14:09;4.27;;;2.73;;
19161;SDS011;9713;48.140;11.530;2022-11-20T01:17:55;4.23;;;2.70;;
19161;SDS011;9713;48.140;11.530;2022-11-20T01:21:38;3.87;;;2.70;;
19161;SDS011;9713;48.140;11.530;2022-11-20T01:25:23;4.20;;;2.67;;
19161;SDS011;9713;48.140;11.530;2022-11-20T01:29:08;3.47;;;2.57;;
19161;SDS011;9713;48.140;11.530;2022-11-20T01:32:52;3.67;;;2.50;;
19161;SDS011;9713;48.140;11.530;2022-11-20T01:36:35;3.90;;;2.67;;
19161;SDS011;9713;48.140;11.530;2022-11-20T01:40:18;3.80;;;2.37;;
19161;SDS011;9713;48.140;11.530;2022-11-20T01:44:03;4.90;;;2.27;;
19161;SDS011;9713;48.140;11.530;2022-11-20T01:47:45;3.53;;;2.57;;
19161;SDS011;9713;48.140;11.530;2022-11-20T01:51:30;5.90;;;2.50;;
19161;SDS011;9713;48.140;11.530;2022-11-20T01:55:17;5.03;;;2.80;;
19161;SDS011;9713;48.140;11.530;2022-11-20T01:59:03;3.50;;;2.30;;
19161;SDS011;9713;48.140;11.530;2022-11-20T02:02:48;3.17;;;2.20;;
19161;SDS011;9713;48.140;11.530;2022-11-20T02:06:35;3.87;;;2.33;;
19161;SDS011;9713;48.140;11.530;2022-11-20T02:10:18;3.10;;;2.20;;
19161;SDS011;9713;48.140;11.530;2022-11-20T02:14:02;2.90;;;2.40;;
19161;SDS011;9713;48.140;11.530;2022-11-20T02:17:45;3.93;;;2.77;;
19161;SDS011;9713;48.140;11.530;2022-11-20T02:21:33;4.07;;;2.63;;
19161;SDS011;9713;48.140;11.530;2022-11-20T02:25:18;4.83;;;2.40;;
19161;SDS011;9713;48.140;11.530;2022-11-20T02:29:02;4.50;;;2.60;;
19161;SDS011;9713;48.140;11.530;2022-11-20T02:32:45;7.67;;;2.77;;
19161;SDS011;9713;48.140;11.530;2022-11-20T02:36:28;4.43;;;2.57;;
19161;SDS011;9713;48.140;11.530;2022-11-20T02:40:11;3.90;;;2.90;;
19161;SDS011;9713;48.140;11.530;2022-11-20T02:43:55;4.10;;;2.87;;
19161;SDS011;9713;48.140;11.530;2022-11-20T02:47:38;3.23;;;2.40;;
19161;SDS011;9713;48.140;11.530;2022-11-20T02:51:21;6.47;;;3.13;;
19161;SDS011;9713;48.140;11.530;2022-11-20T02:55:06;4.33;;;2.97;;
19161;SDS011;9713;48.140;11.530;2022-11-20T02:58:49;5.43;;;2.87;;
19161;SDS011;9713;48.140;11.530;2022-11-20T03:02:33;4.87;;;3.30;;
19161;SDS011;9713;48.140;11.530;2022-11-20T03:06:16;6.20;;;3.23;;
19161;SDS011;9713;48.140;11.530;2022-11-20T03:10:01;4.03;;;3.00;;
19161;SDS011;9713;48.140;11.530;2022-11-20T03:13:44;4.30;;;2.80;;
19161;SDS011;9713;48.140;11.530;2022-11-20T03:17:26;4.20;;;3.03;;
19161;SDS011;9713;48.140;11.530;2022-11-20T03:21:12;3.70;;;2.87;;
19161;SDS011;9713;48.140;11.530;2022-11-20T03:24:55;4.13;;;3.00;;
19161;SDS011;9713;48.140;11.530;2022-11-20T03:28:38;3.63;;;2.60;;
19161;SDS011;9713;48.140;11.530;2022-11-20T03:32:21;4.17;;;2.80;;
19161;SDS011;9713;48.140;11.530;2022-11-20T03:36:04;5.43;;;3.20;;
19161;SDS011;9713;48.140;11.530;2022-11-20T03:39:49;5.23;;;3.20;;
19161;SDS011;9713;48.140;11.530;2022-11-20T03:43:32;4.20;;;3.17;;
19161;SDS011;9713;48.140;11.530;2022-11-20T03:47:15;5.47;;;3.33;;
19161;SDS011;9713;48.140;11.530;2022-11-20T03:51:11;4.90;;;3.63;;
19161;SDS011;9713;48.140;11.530;2022-11-20T03:54:57;5.10;;;3.40;;
19161;SDS011;9713;48.140;11.530;2022-11-20T03:58:40;4.57;;;3.30;;
19161;SDS011;9713;48.140;11.530;2022-11-20T04:02:23;6.07;;;3.33;;
19161;SDS011;9713;48.140;11.530;2022-11-20T04:06:06;5.10;;;3.13;;
19161;SDS011;9713;48.140;11.530;2022-11-20T04:09:50;4.47;;;3.10;;
19161;SDS011;9713;48.140;11.530;2022-11-20T04:13:34;5.03;;;3.03;;
19161;SDS011;9713;48.140;11.530;2022-11-20T04:17:17;4.80;;;3.23;;
19161;SDS011;9713;48.140;11.530;2022-11-20T04:21:00;5.23;;;2.97;;
19161;SDS011;9713;48.140;11.530;2022-11-20T04:24:43;4.83;;;3.40;;
19161;SDS011;9713;48.140;11.530;2022-11-20T04:28:26;4.57;;;3.13;;
19161;SDS011;9713;48.140;11.530;2022-11-20T04:32:10;4.50;;;2.93;;
19161;SDS011;9713;48.140;11.530;2022-11-20T04:35:52;3.40;;;2.67;;
19161;SDS011;9713;48.140;11.530;2022-11-20T04:39:35;4.83;;;3.13;;
19161;SDS011;9713;48.140;11.530;2022-11-20T04:43:18;4.17;;;3.00;;
19161;SDS011;9713;48.140;11.530;2022-11-20T04:47:00;6.47;;;3.17;;
19161;SDS011;9713;48.140;11.530;2022-11-20T04:50:44;5.07;;;3.07;;
19161;SDS011;9713;48.140;11.530;2022-11-20T04:54:27;3.80;;;2.90;;
19161;SDS011;9713;48.140;11.530;2022-11-20T04:58:10;3.93;;;3.00;;
19161;SDS011;9713;48.140;11.530;2022-11-20T05:01:54;4.90;;;3.23;;
19161;SDS011;9713;48.140;11.530;2022-11-20T05:05:37;5.37;;;2.97;;
19161;SDS011;9713;48.140;11.530;2022-11-20T05:09:21;6.03;;;3.30;;
19161;SDS011;9713;48.140;11.530;2022-11-20T05:13:04;7.17;;;3.60;;
19161;SDS011;9713;48.140;11.530;2022-11-20T05:16:47;5.37;;;3.47;;
19161;SDS011;9713;48.140;11.530;2022-11-20T05:20:30;5.10;;;3.40;;
19161;SDS011;9713;48.140;11.530;2022-11-20T05:24:12;5.50;;;3.10;;
19161;SDS011;9713;48.140;11.530;2022-11-20T05:27:56;5.03;;;3.20;;
19161;SDS011;9713;48.140;11.530;2022-11-20T05:31:40;5.07;;;3.33;;
19161;SDS011;9713;48.140;11.530;2022-11-20T05:35:23;5.93;;;3.30;;
19161;SDS011;9713;48.140;11.530;2022-11-20T05:39:05;4.27;;;3.37;;
19161;SDS011;9713;48.140;11.530;2022-11-20T05:42:48;5.40;;;3.30;;
19161;SDS011;9713;48.140;11.530;2022-11-20T05:46:32;4.43;;;3.20;;
19161;SDS011;9713;48.140;11.530;2022-11-20T05:50:15;5.50;;;3.00;;
19161;SDS011;9713;48.140;11.530;2022-11-20T05:53:57;4.73;;;3.00;;
19161;SDS011;9713;48.140;11.530;2022-11-20T05:57:40;4.30;;;3.03;;
19161;SDS011;9713;48.140;11.530;2022-11-20T06:01:24;4.37;;;3.00;;
19161;SDS011;9713;48.140;11.530;2022-11-20T06:05:09;3.33;;;2.67;;
19161;SDS011;9713;48.140;11.530;2022-11-20T06:08:51;4.30;;;2.90;;
19161;SDS011;9713;48.140;11.530;2022-11-20T06:12:34;5.33;;;3.33;;
19161;SDS011;9713;48.140;11.530;2022-11-20T06:16:17;5.53;;;3.10;;
19161;SDS011;9713;48.140;11.530;2022-11-20T06:20:06;3.87;;;2.60;;
19161;SDS011;9713;48.140;11.530;2022-11-20T06:23:51;4.40;;;2.57;;
19161;SDS011;9713;48.140;11.530;2022-11-20T06:27:34;3.60;;;2.40;;
19161;SDS011;9713;48.140;11.530;2022-11-20T06:31:18;3.23;;;2.40;;
19161;SDS011;9713;48.140;11.530;2022-11-20T06:35:03;4.07;;;2.50;;
19161;SDS011;9713;48.140;11.530;2022-11-20T06:38:46;2.80;;;2.30;;
19161;SDS011;9713;48.140;11.530;2022-11-20T06:42:30;2.90;;;2.17;;
19161;SDS011;9713;48.140;11.530;2022-11-20T06:46:13;2.93;;;2.10;;
19161;SDS011;9713;48.140;11.530;2022-11-20T06:49:58;2.97;;;2.13;;
19161;SDS011;9713;48.140;11.530;2022-11-20T06:53:41;2.57;;;1.90;;
19161;SDS011;9713;48.140;11.530;2022-11-20T06:57:24;3.07;;;1.90;;
19161;SDS011;9713;48.140;11.530;2022-11-20T07:01:09;2.57;;;2.03;;
19161;SDS011;9713;48.140;11.530;2022-11-20T07:04:56;3.90;;;1.97;;
19161;SDS011;9713;48.140;11.530;2022-11-20T07:08:38;3.50;;;2.20;;
19161;SDS011;9713;48.140;11.530;2022-11-20T07:12:21;2.60;;;1.70;;
19161;SDS011;9713;48.140;11.530;2022-11-20T07:16:04;2.93;;;2.33;;
19161;SDS011;9713;48.140;11.530;2022-11-20T07:19:50;3.00;;;2.10;;
19161;SDS011;9713;48.140;11.530;2022-11-20T07:23:33;4.53;;;2.40;;
19161;SDS011;9713;48.140;11.530;2022-11-20T07:27:19;3.47;;;2.57;;
19161;SDS011;9713;48.140;11.530;2022-11-20T07:31:02;4.47;;;2.70;;
19161;SDS011;9713;48.140;11.530;2022-11-20T07:34:45;5.67;;;2.90;;
19161;SDS011;9713;48.140;11.530;2022-11-20T07:38:30;3.90;;;2.90;;
19161;SDS011;9713;48.140;11.530;2022-11-20T07:42:12;4.27;;;2.87;;
19161;SDS011;9713;48.140;11.530;2022-11-20T07:45:55;4.13;;;2.90;;
19161;SDS011;9713;48.140;11.530;2022-11-20T07:49:38;4.93;;;2.90;;
19161;SDS011;9713;48.140;11.530;2022-11-20T07:53:21;3.70;;;2.60;;
19161;SDS011;9713;48.140;11.530;2022-11-20T07:57:05;3.93;;;2.50;;
19161;SDS011;9713;48.140;11.530;2022-11-20T08:00:48;3.63;;;2.40;;
19161;SDS011;9713;48.140;11.530;2022-11-20T08:04:30;4.10;;;2.40;;
19161;SDS011;9713;48.140;11.530;2022-11-20T08:08:14;4.10;;;2.30;;
19161;SDS011;9713;48.140;11.530;2022-11-20T08:11:57;4.17;;;2.30;;
19161;SDS011;9713;48.140;11.530;2022-11-20T08:15:58;3.47;;;2.20;;
19161;SDS011;9713;48.140;11.530;2022-11-20T08:19:44;2.97;;;2.10;;
19161;SDS011;9713;48.140;11.530;2022-11-20T08:23:26;6.07;;;2.20;;
19161;SDS011;9713;48.140;11.530;2022-11-20T08:27:09;2.83;;;2.27;;
19161;SDS011;9713;48.140;11.530;2022-11-20T08:30:57;3.27;;;2.20;;
19161;SDS011;9713;48.140;11.530;2022-11-20T08:34:41;3.80;;;2.40;;
19161;SDS011;9713;48.140;11.530;2022-11-20T08:38:24;3.60;;;2.87;;
19161;SDS011;9713;48.140;11.530;2022-11-20T08:42:07;5.07;;;2.30;;
19161;SDS011;9713;48.140;11.530;2022-11-20T08:45:50;5.57;;;3.00;;
19161;SDS011;9713;48.140;11.530;2022-11-20T08:49:34;3.70;;;2.60;;
19161;SDS011;9713;48.140;11.530;2022-11-20T08:53:16;5.67;;;2.87;;
19161;SDS011;9713;48.140;11.530;2022-11-20T08:56:59;4.07;;;2.70;;
19161;SDS011;9713;48.140;11.530;2022-11-20T09:00:42;4.60;;;2.60;;
19161;SDS011;9713;48.140;11.530;2022-11-20T09:04:25;4.90;;;2.53;;
19161;SDS011;9713;48.140;11.530;2022-11-20T09:08:09;2.83;;;2.10;;
19161;SDS011;9713;48.140;11.530;2022-11-20T09:11:52;4.00;;;2.37;;
19161;SDS011;9713;48.140;11.530;2022-11-20T09:15:35;3.47;;;2.20;;
19161;SDS011;9713;48.140;11.530;2022-11-20T09:19:17;3.30;;;2.10;;
19161;SDS011;9713;48.140;11.530;2022-11-20T09:23:21;3.67;;;2.20;;
19161;SDS011;9713;48.140;11.530;2022-11-20T09:27:04;3.60;;;2.57;;
19161;SDS011;9713;48.140;11.530;2022-11-20T09:30:47;3.37;;;2.20;;
19161;SDS011;9713;48.140;11.530;2022-11-20T09:34:30;3.33;;;2.00;;
19161;SDS011;9713;48.140;11.530;2022-11-20T09:38:12;2.50;;;2.00;;
19161;SDS011;9713;48.140;11.530;2022-11-20T09:41:59;3.90;;;1.90;;
19161;SDS011;9713;48.140;11.530;2022-11-20T09:46:02;3.23;;;1.83;;
19161;SDS011;9713;48.140;11.530;2022-11-20T09:49:52;2.90;;;2.00;;
19161;SDS011;9713;48.140;11.530;2022-11-20T09:53:44;2.87;;;1.80;;
19161;SDS011;9713;48.140;11.530;2022-11-20T09:57:35;2.00;;;1.33;;
19161;SDS011;9713;48.140;11.530;2022-11-20T10:01:22;2.53;;;1.60;;
19161;SDS011;9713;48.140;11.530;2022-11-20T10:05:09;3.07;;;1.40;;
19161;SDS011;9713;48.140;11.530;2022-11-20T10:08:59;2.77;;;1.67;;
19161;SDS011;9713;48.140;11.530;2022-11-20T10:12:50;4.07;;;1.70;;
19161;SDS011;9713;48.140;11.530;2022-11-20T10:16:40;2.43;;;1.70;;
19161;SDS011;9713;48.140;11.530;2022-11-20T10:20:28;4.27;;;1.80;;
19161;SDS011;9713;48.140;11.530;2022-11-20T10:24:22;2.23;;;1.40;;
19161;SDS011;9713;48.140;11.530;2022-11-20T10:28:12;2.57;;;1.67;;
19161;SDS011;9713;48.140;11.530;2022-11-20T10:32:22;2.73;;;1.40;;
19161;SDS011;9713;48.140;11.530;2022-11-20T10:36:09;2.13;;;1.50;;
19161;SDS011;9713;48.140;11.530;2022-11-20T10:39:58;1.90;;;1.47;;
19161;SDS011;9713;48.140;11.530;2022-11-20T10:43:50;3.83;;;1.27;;
19161;SDS011;9713;48.140;11.530;2022-11-20T10:47:36;3.33;;;1.33;;
19161;SDS011;9713;48.140;11.530;2022-11-20T10:51:22;2.33;;;1.40;;
19161;SDS011;9713;48.140;11.530;2022-11-20T10:55:16;1.93;;;1.30;;
19161;SDS011;9713;48.140;11.530;2022-11-20T10:59:18;2.73;;;1.57;;
19161;SDS011;9713;48.140;11.530;2022-11-20T11:03:14;2.37;;;1.30;;
19161;SDS011;9713;48.140;11.530;2022-11-20T11:07:15;2.03;;;1.63;;
19161;SDS011;9713;48.140;11.530;2022-11-20T11:11:02;1.73;;;1.40;;
19161;SDS011;9713;48.140;11.530;2022-11-20T11:14:54;2.10;;;1.23;;
19161;SDS011;9713;48.140;11.530;2022-11-20T11:18:38;1.77;;;1.33;;
19161;SDS011;9713;48.140;11.530;2022-11-20T11:22:23;5.07;;;1.43;;
19161;SDS011;9713;48.140;11.530;2022-11-20T11:26:06;1.87;;;1.33;;
19161;SDS011;9713;48.140;11.530;2022-11-20T11:30:12;3.60;;;1.67;;
19161;SDS011;9713;48.140;11.530;2022-11-20T11:34:05;2.87;;;1.53;;
19161;SDS011;9713;48.140;11.530;2022-11-20T11:37:48;2.77;;;1.30;;
19161;SDS011;9713;48.140;11.530;2022-11-20T11:41:32;1.77;;;1.23;;
19161;SDS011;9713;48.140;11.530;2022-11-20T11:45:18;2.20;;;1.33;;
19161;SDS011;9713;48.140;11.530;2022-11-20T11:49:02;3.53;;;2.03;;
19161;SDS011;9713;48.140;11.530;2022-11-20T11:52:59;2.97;;;1.50;;
19161;SDS011;9713;48.140;11.530;2022-11-20T11:56:47;2.73;;;1.43;;
19161;SDS011;9713;48.140;11.530;2022-11-20T12:00:31;2.20;;;1.77;;
19161;SDS011;9713;48.140;11.530;2022-11-20T12:04:16;2.43;;;1.63;;
19161;SDS011;9713;48.140;11.530;2022-11-20T12:08:03;1.50;;;1.40;;
19161;SDS011;9713;48.140;11.530;2022-11-20T12:11:53;4.30;;;1.70;;
19161;SDS011;9713;48.140;11.530;2022-11-20T12:15:38;3.93;;;1.73;;
19161;SDS011;9713;48.140;11.530;2022-11-20T12:19:27;4.97;;;1.40;;
19161;SDS011;9713;48.140;11.530;2022-11-20T12:23:14;2.33;;;1.40;;
19161;SDS011;9713;48.140;11.530;2022-11-20T12:27:03;3.13;;;1.63;;
19161;SDS011;9713;48.140;11.530;2022-11-20T12:31:07;2.97;;;1.70;;
19161;SDS011;9713;48.140;11.530;2022-11-20T12:35:10;2.27;;;1.70;;
19161;SDS011;9713;48.140;11.530;2022-11-20T12:39:16;1.93;;;1.60;;
19161;SDS011;9713;48.140;11.530;2022-11-20T12:43:21;2.67;;;1.40;;
19161;SDS011;9713;48.140;11.530;2022-11-20T12:47:26;2.73;;;1.70;;
19161;SDS011;9713;48.140;11.530;2022-11-20T12:51:21;1.90;;;1.40;;
19161;SDS011;9713;48.140;11.530;2022-11-20T12:55:16;2.13;;;1.70;;
19161;SDS011;9713;48.140;11.530;2022-11-20T12:59:06;3.07;;;2.03;;
19161;SDS011;9713;48.140;11.530;2022-11-20T13:03:04;3.07;;;1.80;;
19161;SDS011;9713;48.140;11.530;2022-11-20T13:06:51;2.13;;;1.80;;
19161;SDS011;9713;48.140;11.530;2022-11-20T13:10:35;3.83;;;2.07;;
19161;SDS011;9713;48.140;11.530;2022-11-20T13:14:24;2.83;;;1.77;;
19161;SDS011;9713;48.140;11.530;2022-11-20T13:18:15;3.20;;;2.10;;
19161;SDS011;9713;48.140;11.530;2022-11-20T13:21:58;3.73;;;2.10;;
19161;SDS011;9713;48.140;11.530;2022-11-20T13:25:41;2.93;;;1.90;;
19161;SDS011;9713;48.140;11.530;2022-11-20T13:29:24;6.67;;;3.80;;
19161;SDS011;9713;48.140;11.530;2022-11-20T13:33:07;5.30;;;2.47;;
19161;SDS011;9713;48.140;11.530;2022-11-20T13:36:55;3.73;;;2.30;;
19161;SDS011;9713;48.140;11.530;2022-11-20T13:40:39;4.93;;;2.40;;
19161;SDS011;9713;48.140;11.530;2022-11-20T13:44:33;3.40;;;2.50;;
19161;SDS011;9713;48.140;11.530;2022-11-20T13:48:19;3.87;;;2.50;;
19161;SDS011;9713;48.140;11.530;2022-11-20T13:52:08;3.53;;;2.20;;
19161;SDS011;9713;48.140;11.530;2022-11-20T13:56:10;3.77;;;2.40;;
19161;SDS011;9713;48.140;11.530;2022-11-20T14:00:02;3.70;;;2.00;;
19161;SDS011;9713;48.140;11.530;2022-11-20T14:03:49;3.00;;;2.20;;
19161;SDS011;9713;48.140;11.530;2022-11-20T14:07:50;4.33;;;2.30;;
19161;SDS011;9713;48.140;11.530;2022-11-20T14:11:34;2.83;;;1.80;;
19161;SDS011;9713;48.140;11.530;2022-11-20T14:15:27;4.43;;;2.60;;
19161;SDS011;9713;48.140;11.530;2022-11-20T14:23:24;2.83;;;2.00;;
19161;SDS011;9713;48.140;11.530;2022-11-20T14:27:12;2.53;;;1.90;;
19161;SDS011;9713;48.140;11.530;2022-11-20T14:30:56;3.10;;;1.80;;
19161;SDS011;9713;48.140;11.530;2022-11-20T14:34:40;3.33;;;2.00;;
19161;SDS011;9713;48.140;11.530;2022-11-20T14:38:26;2.33;;;1.50;;
19161;SDS011;9713;48.140;11.530;2022-11-20T14:42:16;3.13;;;1.90;;
19161;SDS011;9713;48.140;11.530;2022-11-20T14:46:00;2.73;;;1.70;;
19161;SDS011;9713;48.140;11.530;2022-11-20T14:49:44;1.80;;;1.40;;
19161;SDS011;9713;48.140;11.530;2022-11-20T14:53:29;1.37;;;1.00;;
19161;SDS011;9713;48.140;11.530;2022-11-20T14:57:24;1.53;;;1.00;;
19161;SDS011;9713;48.140;11.530;2022-11-20T15:01:11;2.07;;;1.30;;
19161;SDS011;9713;48.140;11.530;2022-11-20T15:04:56;1.03;;;0.83;;
19161;SDS011;9713;48.140;11.530;2022-11-20T15:08:51;1.20;;;0.90;;
19161;SDS011;9713;48.140;11.530;2022-11-20T15:12:35;2.60;;;1.30;;
19161;SDS011;9713;48.140;11.530;2022-11-20T15:16:20;1.70;;;1.13;;
19161;SDS011;9713;48.140;11.530;2022-11-20T15:20:05;2.60;;;1.30;;
19161;SDS011;9713;48.140;11.530;2022-11-20T15:23:54;1.60;;;1.00;;
19161;SDS011;9713;48.140;11.530;2022-11-20T15:27:36;1.40;;;1.10;;
19161;SDS011;9713;48.140;11.530;2022-11-20T15:31:20;2.53;;;1.60;;
19161;SDS011;9713;48.140;11.530;2022-11-20T15:35:04;1.73;;;1.30;;
19161;SDS011;9713;48.140;11.530;2022-11-20T15:38:47;2.60;;;1.27;;
19161;SDS011;9713;48.140;11.530;2022-11-20T15:42:32;3.70;;;1.47;;
19161;SDS011;9713;48.140;11.530;2022-11-20T15:46:15;3.30;;;1.50;;
19161;SDS011;9713;48.140;11.530;2022-11-20T15:49:59;1.97;;;1.43;;
19161;SDS011;9713;48.140;11.530;2022-11-20T15:53:41;3.33;;;1.90;;
19161;SDS011;9713;48.140;11.530;2022-11-20T15:57:24;2.20;;;1.50;;
19161;SDS011;9713;48.140;11.530;2022-11-20T16:01:10;3.30;;;1.80;;
19161;SDS011;9713;48.140;11.530;2022-11-20T16:04:53;2.73;;;1.80;;
19161;SDS011;9713;48.140;11.530;2022-11-20T16:08:39;3.00;;;1.80;;
19161;SDS011;9713;48.140;11.530;2022-11-20T16:12:21;2.20;;;1.73;;
19161;SDS011;9713;48.140;11.530;2022-11-20T16:16:21;2.77;;;1.97;;
19161;SDS011;9713;48.140;11.530;2022-11-20T16:20:05;4.17;;;2.00;;
19161;SDS011;9713;48.140;11.530;2022-11-20T16:23:48;2.80;;;2.10;;
19161;SDS011;9713;48.140;11.530;2022-11-20T16:27:31;6.57;;;2.83;;
19161;SDS011;9713;48.140;11.530;2022-11-20T16:31:14;5.87;;;2.70;;
19161;SDS011;9713;48.140;11.530;2022-11-20T16:34:59;4.70;;;2.47;;
19161;SDS011;9713;48.140;11.530;2022-11-20T16:38:43;4.40;;;2.90;;
19161;SDS011;9713;48.140;11.530;2022-11-20T16:42:26;4.90;;;2.97;;
19161;SDS011;9713;48.140;11.530;2022-11-20T16:46:09;4.60;;;2.50;;
19161;SDS011;9713;48.140;11.530;2022-11-20T16:49:51;6.17;;;3.00;;
19161;SDS011;9713;48.140;11.530;2022-11-20T16:53:35;5.07;;;3.50;;
19161;SDS011;9713;48.140;11.530;2022-11-20T16:57:18;5.60;;;3.40;;
19161;SDS011;9713;48.140;11.530;2022-11-20T17:01:04;4.47;;;3.13;;
19161;SDS011;9713;48.140;11.530;2022-11-20T17:04:47;6.27;;;3.70;;
19161;SDS011;9713;48.140;11.530;2022-11-20T17:08:30;5.57;;;3.47;;
19161;SDS011;9713;48.140;11.530;2022-11-20T17:12:14;5.50;;;3.33;;
19161;SDS011;9713;48.140;11.530;2022-11-20T17:15:59;8.30;;;3.80;;
19161;SDS011;9713;48.140;11.530;2022-11-20T17:19:43;5.87;;;4.00;;
19161;SDS011;9713;48.140;11.530;2022-11-20T17:23:26;5.47;;;3.53;;
19161;SDS011;9713;48.140;11.530;2022-11-20T17:27:09;7.33;;;4.00;;
19161;SDS011;9713;48.140;11.530;2022-11-20T17:30:53;5.83;;;3.87;;
19161;SDS011;9713;48.140;11.530;2022-11-20T17:34:40;5.63;;;3.80;;
19161;SDS011;9713;48.140;11.530;2022-11-20T17:38:23;6.97;;;4.53;;
19161;SDS011;9713;48.140;11.530;2022-11-20T17:42:06;7.13;;;4.40;;
19161;SDS011;9713;48.140;11.530;2022-11-20T17:46:08;7.27;;;4.43;;
19161;SDS011;9713;48.140;11.530;2022-11-20T17:49:52;8.30;;;4.70;;
19161;SDS011;9713;48.140;11.530;2022-11-20T17:53:36;9.23;;;5.07;;
19161;SDS011;9713;48.140;11.530;2022-11-20T17:57:20;8.40;;;4.53;;
19161;SDS011;9713;48.140;11.530;2022-11-20T18:01:22;6.63;;;4.17;;
19161;SDS011;9713;48.140;11.530;2022-11-20T18:05:05;8.23;;;4.00;;
19161;SDS011;9713;48.140;11.530;2022-11-20T18:08:48;7.93;;;4.47;;
19161;SDS011;9713;48.140;11.530;2022-11-20T18:12:31;6.37;;;4.07;;
19161;SDS011;9713;48.140;11.530;2022-11-20T18:16:15;7.67;;;4.20;;
19161;SDS011;9713;48.140;11.530;2022-11-20T18:19:59;7.60;;;4.00;;
19161;SDS011;9713;48.140;11.530;2022-11-20T18:24:02;6.30;;;3.90;;
19161;SDS011;9713;48.140;11.530;2022-11-20T18:27:45;6.47;;;3.50;;
19161;SDS011;9713;48.140;11.530;2022-11-20T18:31:28;37.90;;;14.87;;
19161;SDS011;9713;48.140;11.530;2022-11-20T18:35:12;9.97;;;4.70;;
19161;SDS011;9713;48.140;11.530;2022-11-20T18:38:55;11.90;;;5.90;;
19161;SDS011;9713;48.140;11.530;2022-11-20T18:42:40;7.67;;;3.90;;
19161;SDS011;9713;48.140;11.530;2022-11-20T18:46:40;6.33;;;3.67;;
19161;SDS011;9713;48.140;11.530;2022-11-20T18:50:24;5.90;;;3.63;;
19161;SDS011;9713;48.140;11.530;2022-11-20T18:54:07;5.57;;;3.07;;
19161;SDS011;9713;48.140;11.530;2022-11-20T18:57:49;4.63;;;3.10;;
19161;SDS011;9713;48.140;11.530;2022-11-20T19:01:32;5.10;;;3.07;;
19161;SDS011;9713;48.140;11.530;2022-11-20T19:05:15;4.83;;;3.40;;
19161;SDS011;9713;48.140;11.530;2022-11-20T19:08:59;6.73;;;4.00;;
19161;SDS011;9713;48.140;11.530;2022-11-20T19:12:42;6.20;;;3.80;;
19161;SDS011;9713;48.140;11.530;2022-11-20T19:16:25;6.63;;;4.10;;
19161;SDS011;9713;48.140;11.530;2022-11-20T19:20:08;7.77;;;4.00;;
19161;SDS011;9713;48.140;11.530;2022-11-20T19:23:52;7.30;;;4.60;;
19161;SDS011;9713;48.140;11.530;2022-11-20T19:27:49;7.87;;;4.67;;
19161;SDS011;9713;48.140;11.530;2022-11-20T19:31:32;5.33;;;3.67;;
19161;SDS011;9713;48.140;11.530;2022-11-20T19:35:15;6.67;;;3.73;;
19161;SDS011;9713;48.140;11.530;2022-11-20T19:38:58;4.73;;;3.17;;
19161;SDS011;9713;48.140;11.530;2022-11-20T19:42:41;5.90;;;3.23;;
19161;SDS011;9713;48.140;11.530;2022-11-20T19:46:25;7.93;;;3.47;;
19161;SDS011;9713;48.140;11.530;2022-11-20T19:50:09;9.80;;;4.27;;
19161;SDS011;9713;48.140;11.530;2022-11-20T19:53:53;10.40;;;4.60;;
19161;SDS011;9713;48.140;11.530;2022-11-20T19:57:36;8.97;;;4.97;;
19161;SDS011;9713;48.140;11.530;2022-11-20T20:01:20;6.90;;;4.23;;
19161;SDS011;9713;48.140;11.530;2022-11-20T20:05:06;7.17;;;4.27;;
19161;SDS011;9713;48.140;11.530;2022-11-20T20:08:52;7.43;;;4.03;;
19161;SDS011;9713;48.140;11.530;2022-11-20T20:12:35;7.57;;;4.40;;
19161;SDS011;9713;48.140;11.530;2022-11-20T20:16:18;7.87;;;4.27;;
19161;SDS011;9713;48.140;11.530;2022-11-20T20:20:02;7.77;;;3.73;;
19161;SDS011;9713;48.140;11.530;2022-11-20T20:23:48;6.00;;;3.33;;
19161;SDS011;9713;48.140;11.530;2022-11-20T20:27:32;6.73;;;3.90;;
19161;SDS011;9713;48.140;11.530;2022-11-20T20:31:17;6.23;;;3.77;;
19161;SDS011;9713;48.140;11.530;2022-11-20T20:35:01;6.67;;;3.67;;
19161;SDS011;9713;48.140;11.530;2022-11-20T20:38:43;7.20;;;4.07;;
19161;SDS011;9713;48.140;11.530;2022-11-20T20:42:29;6.90;;;3.67;;
19161;SDS011;9713;48.140;11.530;2022-11-20T20:46:13;10.40;;;4.30;;
19161;SDS011;9713;48.140;11.530;2022-11-20T20:49:55;24.30;;;10.33;;
19161;SDS011;9713;48.140;11.530;2022-11-20T20:53:38;8.37;;;3.87;;
19161;SDS011;9713;48.140;11.530;2022-11-20T20:57:21;4.40;;;2.97;;
19161;SDS011;9713;48.140;11.530;2022-11-20T21:01:06;4.37;;;2.50;;
19161;SDS011;9713;48.140;11.530;2022-11-20T21:04:51;5.00;;;2.30;;
19161;SDS011;9713;48.140;11.530;2022-11-20T21:08:34;4.40;;;2.30;;
19161;SDS011;9713;48.140;11.530;2022-11-20T21:12:21;4.07;;;2.33;;
19161;SDS011;9713;48.140;11.530;2022-11-20T21:16:03;4.17;;;2.17;;
19161;SDS011;9713;48.140;11.530;2022-11-20T21:19:48;4.00;;;1.80;;
19161;SDS011;9713;48.140;11.530;2022-11-20T21:23:31;2.67;;;2.07;;
19161;SDS011;9713;48.140;11.530;2022-11-20T21:27:14;3.00;;;2.10;;
19161;SDS011;9713;48.140;11.530;2022-11-20T21:31:03;4.20;;;2.50;;
19161;SDS011;9713;48.140;11.530;2022-11-20T21:34:48;3.07;;;2.10;;
19161;SDS011;9713;48.140;11.530;2022-11-20T21:38:31;5.10;;;2.00;;
19161;SDS011;9713;48.140;11.530;2022-11-20T21:42:13;2.53;;;1.70;;
19161;SDS011;9713;48.140;11.530;2022-11-20T21:45:59;2.03;;;1.60;;
19161;SDS011;9713;48.140;11.530;2022-11-20T21:49:43;1.93;;;1.60;;
19161;SDS011;9713;48.140;11.530;2022-11-20T21:53:27;3.13;;;1.70;;
19161;SDS011;9713;48.140;11.530;2022-11-20T21:57:09;2.73;;;1.60;;
19161;SDS011;9713;48.140;11.530;2022-11-20T22:00:52;3.93;;;1.87;;
19161;SDS011;9713;48.140;11.530;2022-11-20T22:04:35;4.13;;;2.00;;
19161;SDS011;9713;48.140;11.530;2022-11-20T22:08:17;2.03;;;1.60;;
19161;SDS011;9713;48.140;11.530;2022-11-20T22:12:02;1.93;;;1.60;;
19161;SDS011;9713;48.140;11.530;2022-11-20T22:15:45;2.43;;;1.70;;
19161;SDS011;9713;48.140;11.530;2022-11-20T22:19:41;4.17;;;1.90;;
19161;SDS011;9713;48.140;11.530;2022-11-20T22:23:23;2.30;;;1.90;;
19161;SDS011;9713;48.140;11.530;2022-11-20T22:27:08;3.20;;;2.10;;
19161;SDS011;9713;48.140;11.530;2022-11-20T22:30:51;4.37;;;2.30;;
19161;SDS011;9713;48.140;11.530;2022-11-20T22:34:34;4.47;;;1.90;;
19161;SDS011;9713;48.140;11.530;2022-11-20T22:38:17;2.43;;;1.87;;
19161;SDS011;9713;48.140;11.530;2022-11-20T22:41:59;4.73;;;2.30;;
19161;SDS011;9713;48.140;11.530;2022-11-20T22:45:43;4.23;;;2.20;;